sensor_id;sensor_type;location;lat;lon;timestamp;P1;durP1;ratioP1;P2;durP2;ratioP2
2710;SDS011;20721;47.402;8.550;2023-07-29T00:00:49;3.98;;;3.98;;
2710;SDS011;20721;47.402;8.550;2023-07-29T00:02:49;3.83;;;3.83;;
2710;SDS011;20721;47.402;8.550;2023-07-29T00:06:50;4.46;;;4.46;;
2710;SDS011;20721;47.402;8.550;2023-07-29T00:08:49;3.70;;;3.70;;
2710;SDS011;20721;47.402;8.550;2023-07-29T00:10:49;4.47;;;4.47;;
2710;SDS011;20721;47.402;8.550;2023-07-29T00:13:49;3.80;;;3.80;;
2710;SDS011;20721;47.402;8.550;2023-07-29T00:15:49;3.73;;;3.73;;
2710;SDS011;20721;47.402;8.550;2023-07-29T00:17:49;4.23;;;4.23;;
2710;SDS011;20721;47.402;8.550;2023-07-29T00:19:49;3.84;;;3.84;;
2710;SDS011;20721;47.402;8.550;2023-07-29T00:21:51;3.50;;;3.50;;
2710;SDS011;20721;47.402;8.550;2023-07-29T00:23:49;4.09;;;4.09;;
2710;SDS011;20721;47.402;8.550;2023-07-29T00:25:49;3.74;;;3.74;;
2710;SDS011;20721;47.402;8.550;2023-07-29T00:29:49;3.93;;;3.93;;
2710;SDS011;20721;47.402;8.550;2023-07-29T00:31:49;3.82;;;3.82;;
2710;SDS011;20721;47.402;8.550;2023-07-29T00:34:49;4.33;;;4.33;;
2710;SDS011;20721;47.402;8.550;2023-07-29T00:38:49;3.82;;;3.82;;
2710;SDS011;20721;47.402;8.550;2023-07-29T00:41:50;3.55;;;3.55;;
2710;SDS011;20721;47.402;8.550;2023-07-29T00:43:49;3.85;;;3.85;;
2710;SDS011;20721;47.402;8.550;2023-07-29T00:45:52;3.44;;;3.44;;
2710;SDS011;20721;47.402;8.550;2023-07-29T00:47:50;3.76;;;3.76;;
2710;SDS011;20721;47.402;8.550;2023-07-29T00:49:50;4.15;;;4.15;;
2710;SDS011;20721;47.402;8.550;2023-07-29T00:51:50;4.59;;;4.59;;
2710;SDS011;20721;47.402;8.550;2023-07-29T00:53:49;3.92;;;3.92;;
2710;SDS011;20721;47.402;8.550;2023-07-29T00:55:50;4.77;;;4.77;;
2710;SDS011;20721;47.402;8.550;2023-07-29T00:58:49;4.20;;;4.20;;
2710;SDS011;20721;47.402;8.550;2023-07-29T01:01:50;4.20;;;4.20;;
2710;SDS011;20721;47.402;8.550;2023-07-29T01:03:50;4.01;;;4.01;;
2710;SDS011;20721;47.402;8.550;2023-07-29T01:08:12;4.20;;;4.20;;
2710;SDS011;20721;47.402;8.550;2023-07-29T01:09:55;4.57;;;4.57;;
2710;SDS011;20721;47.402;8.550;2023-07-29T01:17:54;4.73;;;4.73;;
2710;SDS011;20721;47.402;8.550;2023-07-29T01:20:04;4.45;;;4.45;;
2710;SDS011;20721;47.402;8.550;2023-07-29T01:21:50;4.26;;;4.26;;
2710;SDS011;20721;47.402;8.550;2023-07-29T01:23:52;3.70;;;3.70;;
2710;SDS011;20721;47.402;8.550;2023-07-29T01:25:49;3.93;;;3.93;;
2710;SDS011;20721;47.402;8.550;2023-07-29T01:27:52;4.31;;;4.31;;
2710;SDS011;20721;47.402;8.550;2023-07-29T01:29:50;4.73;;;4.61;;
2710;SDS011;20721;47.402;8.550;2023-07-29T01:35:00;4.83;;;4.81;;
2710;SDS011;20721;47.402;8.550;2023-07-29T01:36:51;4.47;;;4.47;;
2710;SDS011;20721;47.402;8.550;2023-07-29T01:38:51;5.27;;;5.27;;
2710;SDS011;20721;47.402;8.550;2023-07-29T01:40:51;4.24;;;4.24;;
2710;SDS011;20721;47.402;8.550;2023-07-29T01:42:50;4.71;;;4.71;;
2710;SDS011;20721;47.402;8.550;2023-07-29T01:44:52;4.23;;;4.23;;
2710;SDS011;20721;47.402;8.550;2023-07-29T01:46:49;5.34;;;5.34;;
2710;SDS011;20721;47.402;8.550;2023-07-29T01:48:50;4.35;;;4.35;;
2710;SDS011;20721;47.402;8.550;2023-07-29T01:50:50;4.74;;;4.74;;
2710;SDS011;20721;47.402;8.550;2023-07-29T01:52:50;5.02;;;5.02;;
2710;SDS011;20721;47.402;8.550;2023-07-29T01:54:50;5.44;;;5.44;;
2710;SDS011;20721;47.402;8.550;2023-07-29T01:56:50;5.08;;;5.08;;
2710;SDS011;20721;47.402;8.550;2023-07-29T01:58:50;5.14;;;5.14;;
2710;SDS011;20721;47.402;8.550;2023-07-29T02:00:50;5.13;;;5.13;;
2710;SDS011;20721;47.402;8.550;2023-07-29T02:02:50;5.89;;;5.89;;
2710;SDS011;20721;47.402;8.550;2023-07-29T02:04:50;5.09;;;5.09;;
2710;SDS011;20721;47.402;8.550;2023-07-29T02:06:50;4.90;;;4.90;;
2710;SDS011;20721;47.402;8.550;2023-07-29T02:08:50;4.90;;;4.90;;
2710;SDS011;20721;47.402;8.550;2023-07-29T02:10:50;5.52;;;5.52;;
2710;SDS011;20721;47.402;8.550;2023-07-29T02:12:50;5.45;;;5.45;;
2710;SDS011;20721;47.402;8.550;2023-07-29T02:14:50;5.54;;;5.54;;
2710;SDS011;20721;47.402;8.550;2023-07-29T02:16:51;4.83;;;4.83;;
2710;SDS011;20721;47.402;8.550;2023-07-29T02:18:50;4.79;;;4.79;;
2710;SDS011;20721;47.402;8.550;2023-07-29T02:20:50;5.09;;;5.09;;
2710;SDS011;20721;47.402;8.550;2023-07-29T02:22:50;4.78;;;4.78;;
2710;SDS011;20721;47.402;8.550;2023-07-29T02:24:50;5.66;;;5.66;;
2710;SDS011;20721;47.402;8.550;2023-07-29T02:26:50;5.41;;;5.41;;
2710;SDS011;20721;47.402;8.550;2023-07-29T02:28:50;4.60;;;4.60;;
2710;SDS011;20721;47.402;8.550;2023-07-29T02:31:08;5.09;;;5.09;;
2710;SDS011;20721;47.402;8.550;2023-07-29T02:32:50;5.66;;;5.55;;
2710;SDS011;20721;47.402;8.550;2023-07-29T02:34:50;4.51;;;4.51;;
2710;SDS011;20721;47.402;8.550;2023-07-29T02:37:50;4.64;;;4.64;;
2710;SDS011;20721;47.402;8.550;2023-07-29T02:39:50;5.09;;;5.09;;
2710;SDS011;20721;47.402;8.550;2023-07-29T02:42:50;5.03;;;5.03;;
2710;SDS011;20721;47.402;8.550;2023-07-29T02:45:50;4.90;;;4.90;;
2710;SDS011;20721;47.402;8.550;2023-07-29T02:47:50;5.16;;;5.16;;
2710;SDS011;20721;47.402;8.550;2023-07-29T02:49:50;4.83;;;4.83;;
2710;SDS011;20721;47.402;8.550;2023-07-29T02:52:50;5.03;;;5.03;;
2710;SDS011;20721;47.402;8.550;2023-07-29T02:54:50;5.21;;;5.21;;
2710;SDS011;20721;47.402;8.550;2023-07-29T02:56:50;4.22;;;4.22;;
2710;SDS011;20721;47.402;8.550;2023-07-29T02:58:50;4.86;;;4.86;;
2710;SDS011;20721;47.402;8.550;2023-07-29T03:00:53;4.61;;;4.59;;
2710;SDS011;20721;47.402;8.550;2023-07-29T03:02:50;5.11;;;5.11;;
2710;SDS011;20721;47.402;8.550;2023-07-29T03:04:50;5.26;;;5.26;;
2710;SDS011;20721;47.402;8.550;2023-07-29T03:06:50;5.21;;;5.21;;
2710;SDS011;20721;47.402;8.550;2023-07-29T03:08:50;5.36;;;5.36;;
2710;SDS011;20721;47.402;8.550;2023-07-29T03:10:50;5.06;;;5.06;;
2710;SDS011;20721;47.402;8.550;2023-07-29T03:12:50;4.95;;;4.95;;
2710;SDS011;20721;47.402;8.550;2023-07-29T03:14:51;4.87;;;4.87;;
2710;SDS011;20721;47.402;8.550;2023-07-29T03:16:50;5.62;;;5.62;;
2710;SDS011;20721;47.402;8.550;2023-07-29T03:18:51;5.48;;;5.48;;
2710;SDS011;20721;47.402;8.550;2023-07-29T03:20:50;5.14;;;5.14;;
2710;SDS011;20721;47.402;8.550;2023-07-29T03:22:50;5.71;;;5.71;;
2710;SDS011;20721;47.402;8.550;2023-07-29T03:24:50;5.29;;;5.29;;
2710;SDS011;20721;47.402;8.550;2023-07-29T03:26:51;5.34;;;5.34;;
2710;SDS011;20721;47.402;8.550;2023-07-29T03:29:50;4.73;;;4.73;;
2710;SDS011;20721;47.402;8.550;2023-07-29T03:31:50;5.00;;;5.00;;
2710;SDS011;20721;47.402;8.550;2023-07-29T03:33:50;5.42;;;5.37;;
2710;SDS011;20721;47.402;8.550;2023-07-29T03:35:50;5.67;;;5.55;;
2710;SDS011;20721;47.402;8.550;2023-07-29T03:37:50;5.55;;;5.55;;
2710;SDS011;20721;47.402;8.550;2023-07-29T03:40:50;5.76;;;5.76;;
2710;SDS011;20721;47.402;8.550;2023-07-29T03:42:50;5.51;;;5.51;;
2710;SDS011;20721;47.402;8.550;2023-07-29T03:44:50;5.42;;;5.42;;
2710;SDS011;20721;47.402;8.550;2023-07-29T03:46:51;5.17;;;5.17;;
2710;SDS011;20721;47.402;8.550;2023-07-29T03:48:50;5.61;;;5.61;;
2710;SDS011;20721;47.402;8.550;2023-07-29T03:50:50;5.76;;;5.76;;
2710;SDS011;20721;47.402;8.550;2023-07-29T03:52:50;4.02;;;4.02;;
2710;SDS011;20721;47.402;8.550;2023-07-29T03:54:50;4.76;;;4.76;;
2710;SDS011;20721;47.402;8.550;2023-07-29T03:56:51;5.00;;;5.00;;
2710;SDS011;20721;47.402;8.550;2023-07-29T03:58:50;4.83;;;4.83;;
2710;SDS011;20721;47.402;8.550;2023-07-29T04:00:50;4.76;;;4.75;;
2710;SDS011;20721;47.402;8.550;2023-07-29T04:02:51;4.79;;;4.79;;
2710;SDS011;20721;47.402;8.550;2023-07-29T04:04:52;4.40;;;4.40;;
2710;SDS011;20721;47.402;8.550;2023-07-29T04:06:50;5.06;;;5.06;;
2710;SDS011;20721;47.402;8.550;2023-07-29T04:08:51;5.17;;;5.17;;
2710;SDS011;20721;47.402;8.550;2023-07-29T04:10:50;4.81;;;4.81;;
2710;SDS011;20721;47.402;8.550;2023-07-29T04:12:50;5.13;;;5.13;;
2710;SDS011;20721;47.402;8.550;2023-07-29T04:15:50;4.73;;;4.73;;
2710;SDS011;20721;47.402;8.550;2023-07-29T04:17:50;4.95;;;4.95;;
2710;SDS011;20721;47.402;8.550;2023-07-29T04:19:50;6.32;;;6.32;;
2710;SDS011;20721;47.402;8.550;2023-07-29T04:21:50;5.91;;;5.90;;
2710;SDS011;20721;47.402;8.550;2023-07-29T04:23:50;6.28;;;6.28;;
2710;SDS011;20721;47.402;8.550;2023-07-29T04:25:50;6.48;;;6.48;;
2710;SDS011;20721;47.402;8.550;2023-07-29T04:27:50;5.56;;;5.56;;
2710;SDS011;20721;47.402;8.550;2023-07-29T04:29:50;5.70;;;5.70;;
2710;SDS011;20721;47.402;8.550;2023-07-29T04:31:50;5.57;;;5.57;;
2710;SDS011;20721;47.402;8.550;2023-07-29T04:33:50;6.07;;;6.07;;
2710;SDS011;20721;47.402;8.550;2023-07-29T04:35:50;5.79;;;5.79;;
2710;SDS011;20721;47.402;8.550;2023-07-29T04:37:50;6.12;;;6.12;;
2710;SDS011;20721;47.402;8.550;2023-07-29T04:39:50;5.64;;;5.64;;
2710;SDS011;20721;47.402;8.550;2023-07-29T04:41:50;5.72;;;5.72;;
2710;SDS011;20721;47.402;8.550;2023-07-29T04:43:50;5.57;;;5.53;;
2710;SDS011;20721;47.402;8.550;2023-07-29T04:45:54;5.55;;;5.47;;
2710;SDS011;20721;47.402;8.550;2023-07-29T04:47:50;5.58;;;5.49;;
2710;SDS011;20721;47.402;8.550;2023-07-29T04:49:50;5.33;;;5.33;;
2710;SDS011;20721;47.402;8.550;2023-07-29T04:51:50;5.71;;;5.66;;
2710;SDS011;20721;47.402;8.550;2023-07-29T04:53:50;5.63;;;5.59;;
2710;SDS011;20721;47.402;8.550;2023-07-29T04:55:51;5.85;;;5.85;;
2710;SDS011;20721;47.402;8.550;2023-07-29T04:57:50;5.04;;;5.04;;
2710;SDS011;20721;47.402;8.550;2023-07-29T04:59:51;5.01;;;5.01;;
2710;SDS011;20721;47.402;8.550;2023-07-29T05:01:52;4.88;;;4.88;;
2710;SDS011;20721;47.402;8.550;2023-07-29T05:04:50;4.96;;;4.96;;
2710;SDS011;20721;47.402;8.550;2023-07-29T05:06:50;4.91;;;4.91;;
2710;SDS011;20721;47.402;8.550;2023-07-29T05:08:50;5.44;;;5.44;;
2710;SDS011;20721;47.402;8.550;2023-07-29T05:10:50;5.29;;;5.29;;
2710;SDS011;20721;47.402;8.550;2023-07-29T05:12:50;4.42;;;4.42;;
2710;SDS011;20721;47.402;8.550;2023-07-29T05:14:50;5.77;;;5.77;;
2710;SDS011;20721;47.402;8.550;2023-07-29T05:16:50;5.86;;;5.86;;
2710;SDS011;20721;47.402;8.550;2023-07-29T05:18:50;5.23;;;5.23;;
2710;SDS011;20721;47.402;8.550;2023-07-29T05:20:50;5.22;;;5.22;;
2710;SDS011;20721;47.402;8.550;2023-07-29T05:22:50;4.73;;;4.73;;
2710;SDS011;20721;47.402;8.550;2023-07-29T05:24:50;4.54;;;4.54;;
2710;SDS011;20721;47.402;8.550;2023-07-29T05:26:50;5.14;;;5.14;;
2710;SDS011;20721;47.402;8.550;2023-07-29T05:28:50;5.33;;;5.33;;
2710;SDS011;20721;47.402;8.550;2023-07-29T05:31:50;5.46;;;5.46;;
2710;SDS011;20721;47.402;8.550;2023-07-29T05:33:50;5.24;;;5.24;;
2710;SDS011;20721;47.402;8.550;2023-07-29T05:35:50;5.58;;;5.58;;
2710;SDS011;20721;47.402;8.550;2023-07-29T05:37:51;5.18;;;5.18;;
2710;SDS011;20721;47.402;8.550;2023-07-29T05:39:50;5.26;;;5.26;;
2710;SDS011;20721;47.402;8.550;2023-07-29T05:41:50;4.90;;;4.90;;
2710;SDS011;20721;47.402;8.550;2023-07-29T05:43:52;5.40;;;5.40;;
2710;SDS011;20721;47.402;8.550;2023-07-29T05:45:50;4.79;;;4.79;;
2710;SDS011;20721;47.402;8.550;2023-07-29T05:47:50;5.32;;;5.32;;
2710;SDS011;20721;47.402;8.550;2023-07-29T05:49:50;6.08;;;6.08;;
2710;SDS011;20721;47.402;8.550;2023-07-29T05:51:50;5.56;;;5.56;;
2710;SDS011;20721;47.402;8.550;2023-07-29T05:53:50;5.31;;;5.31;;
2710;SDS011;20721;47.402;8.550;2023-07-29T05:55:50;5.22;;;5.22;;
2710;SDS011;20721;47.402;8.550;2023-07-29T05:57:54;5.11;;;5.11;;
2710;SDS011;20721;47.402;8.550;2023-07-29T05:59:50;5.89;;;5.89;;
2710;SDS011;20721;47.402;8.550;2023-07-29T06:01:50;4.73;;;4.73;;
2710;SDS011;20721;47.402;8.550;2023-07-29T06:03:50;5.11;;;5.11;;
2710;SDS011;20721;47.402;8.550;2023-07-29T06:05:51;4.91;;;4.91;;
2710;SDS011;20721;47.402;8.550;2023-07-29T06:07:54;5.08;;;5.08;;
2710;SDS011;20721;47.402;8.550;2023-07-29T06:09:50;5.11;;;5.11;;
2710;SDS011;20721;47.402;8.550;2023-07-29T06:11:50;4.00;;;4.00;;
2710;SDS011;20721;47.402;8.550;2023-07-29T06:13:50;4.44;;;4.44;;
2710;SDS011;20721;47.402;8.550;2023-07-29T06:15:50;4.71;;;4.71;;
2710;SDS011;20721;47.402;8.550;2023-07-29T06:17:50;4.83;;;4.83;;
2710;SDS011;20721;47.402;8.550;2023-07-29T06:19:50;5.34;;;5.34;;
2710;SDS011;20721;47.402;8.550;2023-07-29T06:21:50;5.44;;;5.44;;
2710;SDS011;20721;47.402;8.550;2023-07-29T06:23:50;4.78;;;4.78;;
2710;SDS011;20721;47.402;8.550;2023-07-29T06:25:50;4.95;;;4.95;;
2710;SDS011;20721;47.402;8.550;2023-07-29T06:27:50;4.92;;;4.92;;
2710;SDS011;20721;47.402;8.550;2023-07-29T06:29:50;4.57;;;4.57;;
2710;SDS011;20721;47.402;8.550;2023-07-29T06:31:50;5.04;;;5.04;;
2710;SDS011;20721;47.402;8.550;2023-07-29T06:33:50;5.20;;;5.20;;
2710;SDS011;20721;47.402;8.550;2023-07-29T06:35:51;4.99;;;4.99;;
2710;SDS011;20721;47.402;8.550;2023-07-29T06:37:50;5.46;;;5.46;;
2710;SDS011;20721;47.402;8.550;2023-07-29T06:39:50;4.41;;;4.41;;
2710;SDS011;20721;47.402;8.550;2023-07-29T06:41:50;5.05;;;5.05;;
2710;SDS011;20721;47.402;8.550;2023-07-29T06:43:50;4.51;;;4.51;;
2710;SDS011;20721;47.402;8.550;2023-07-29T06:45:50;4.60;;;4.60;;
2710;SDS011;20721;47.402;8.550;2023-07-29T06:47:50;4.61;;;4.61;;
2710;SDS011;20721;47.402;8.550;2023-07-29T06:49:50;4.82;;;4.82;;
2710;SDS011;20721;47.402;8.550;2023-07-29T06:51:50;4.48;;;4.48;;
2710;SDS011;20721;47.402;8.550;2023-07-29T06:54:50;4.11;;;4.11;;
2710;SDS011;20721;47.402;8.550;2023-07-29T06:56:50;5.21;;;5.21;;
2710;SDS011;20721;47.402;8.550;2023-07-29T06:58:50;5.03;;;5.03;;
2710;SDS011;20721;47.402;8.550;2023-07-29T07:00:50;5.03;;;5.03;;
2710;SDS011;20721;47.402;8.550;2023-07-29T07:02:52;4.96;;;4.96;;
2710;SDS011;20721;47.402;8.550;2023-07-29T07:04:50;5.43;;;5.43;;
2710;SDS011;20721;47.402;8.550;2023-07-29T07:06:50;4.65;;;4.65;;
2710;SDS011;20721;47.402;8.550;2023-07-29T07:08:51;5.35;;;5.35;;
2710;SDS011;20721;47.402;8.550;2023-07-29T07:10:50;5.18;;;5.18;;
2710;SDS011;20721;47.402;8.550;2023-07-29T07:12:50;4.79;;;4.79;;
2710;SDS011;20721;47.402;8.550;2023-07-29T07:14:50;4.68;;;4.68;;
2710;SDS011;20721;47.402;8.550;2023-07-29T07:16:51;5.62;;;5.62;;
2710;SDS011;20721;47.402;8.550;2023-07-29T07:18:51;4.47;;;4.47;;
2710;SDS011;20721;47.402;8.550;2023-07-29T07:20:51;5.80;;;5.80;;
2710;SDS011;20721;47.402;8.550;2023-07-29T07:22:51;5.51;;;5.46;;
2710;SDS011;20721;47.402;8.550;2023-07-29T07:25:52;5.25;;;5.17;;
2710;SDS011;20721;47.402;8.550;2023-07-29T07:27:50;5.27;;;5.16;;
2710;SDS011;20721;47.402;8.550;2023-07-29T07:29:50;5.27;;;5.27;;
2710;SDS011;20721;47.402;8.550;2023-07-29T07:31:51;5.84;;;5.73;;
2710;SDS011;20721;47.402;8.550;2023-07-29T07:33:50;5.72;;;5.72;;
2710;SDS011;20721;47.402;8.550;2023-07-29T07:35:52;5.11;;;5.11;;
2710;SDS011;20721;47.402;8.550;2023-07-29T07:37:51;5.59;;;5.59;;
2710;SDS011;20721;47.402;8.550;2023-07-29T07:39:50;5.52;;;5.52;;
2710;SDS011;20721;47.402;8.550;2023-07-29T07:41:51;5.11;;;5.11;;
2710;SDS011;20721;47.402;8.550;2023-07-29T07:43:50;6.09;;;6.09;;
2710;SDS011;20721;47.402;8.550;2023-07-29T07:45:51;4.77;;;4.77;;
2710;SDS011;20721;47.402;8.550;2023-07-29T07:47:52;5.44;;;5.44;;
2710;SDS011;20721;47.402;8.550;2023-07-29T07:49:50;5.45;;;5.45;;
2710;SDS011;20721;47.402;8.550;2023-07-29T07:51:50;5.31;;;5.31;;
2710;SDS011;20721;47.402;8.550;2023-07-29T07:53:50;5.86;;;5.86;;
2710;SDS011;20721;47.402;8.550;2023-07-29T07:55:51;5.50;;;5.50;;
2710;SDS011;20721;47.402;8.550;2023-07-29T07:57:51;5.64;;;5.64;;
2710;SDS011;20721;47.402;8.550;2023-07-29T07:59:50;5.77;;;5.77;;
2710;SDS011;20721;47.402;8.550;2023-07-29T08:01:51;5.33;;;5.33;;
2710;SDS011;20721;47.402;8.550;2023-07-29T08:03:51;5.50;;;5.50;;
2710;SDS011;20721;47.402;8.550;2023-07-29T08:05:51;5.85;;;5.85;;
2710;SDS011;20721;47.402;8.550;2023-07-29T08:07:51;6.04;;;6.04;;
2710;SDS011;20721;47.402;8.550;2023-07-29T08:09:50;5.97;;;5.97;;
2710;SDS011;20721;47.402;8.550;2023-07-29T08:11:51;6.09;;;6.09;;
2710;SDS011;20721;47.402;8.550;2023-07-29T08:13:51;5.69;;;5.69;;
2710;SDS011;20721;47.402;8.550;2023-07-29T08:15:51;5.33;;;5.33;;
2710;SDS011;20721;47.402;8.550;2023-07-29T08:17:51;5.48;;;5.48;;
2710;SDS011;20721;47.402;8.550;2023-07-29T08:19:51;5.65;;;5.65;;
2710;SDS011;20721;47.402;8.550;2023-07-29T08:21:51;5.28;;;5.28;;
2710;SDS011;20721;47.402;8.550;2023-07-29T08:23:51;6.11;;;6.11;;
2710;SDS011;20721;47.402;8.550;2023-07-29T08:25:52;6.28;;;6.28;;
2710;SDS011;20721;47.402;8.550;2023-07-29T08:27:51;5.55;;;5.55;;
2710;SDS011;20721;47.402;8.550;2023-07-29T08:29:51;5.81;;;5.81;;
2710;SDS011;20721;47.402;8.550;2023-07-29T08:31:51;5.49;;;5.49;;
2710;SDS011;20721;47.402;8.550;2023-07-29T08:33:51;5.27;;;5.27;;
2710;SDS011;20721;47.402;8.550;2023-07-29T08:35:51;5.85;;;5.85;;
2710;SDS011;20721;47.402;8.550;2023-07-29T08:37:51;5.84;;;5.84;;
2710;SDS011;20721;47.402;8.550;2023-07-29T08:39:51;4.98;;;4.98;;
2710;SDS011;20721;47.402;8.550;2023-07-29T08:43:56;6.64;;;6.64;;
2710;SDS011;20721;47.402;8.550;2023-07-29T08:45:52;5.70;;;5.70;;
2710;SDS011;20721;47.402;8.550;2023-07-29T08:47:52;5.52;;;5.52;;
2710;SDS011;20721;47.402;8.550;2023-07-29T08:49:51;5.76;;;5.76;;
2710;SDS011;20721;47.402;8.550;2023-07-29T08:51:53;5.41;;;5.41;;
2710;SDS011;20721;47.402;8.550;2023-07-29T08:53:51;6.01;;;6.01;;
2710;SDS011;20721;47.402;8.550;2023-07-29T08:55:51;5.17;;;5.17;;
2710;SDS011;20721;47.402;8.550;2023-07-29T08:57:51;5.28;;;5.28;;
2710;SDS011;20721;47.402;8.550;2023-07-29T08:59:51;5.69;;;5.69;;
2710;SDS011;20721;47.402;8.550;2023-07-29T09:01:51;6.02;;;6.02;;
2710;SDS011;20721;47.402;8.550;2023-07-29T09:03:51;5.74;;;5.74;;
2710;SDS011;20721;47.402;8.550;2023-07-29T09:05:51;5.33;;;5.33;;
2710;SDS011;20721;47.402;8.550;2023-07-29T09:07:51;4.89;;;4.89;;
2710;SDS011;20721;47.402;8.550;2023-07-29T09:09:51;5.22;;;5.22;;
2710;SDS011;20721;47.402;8.550;2023-07-29T09:11:51;5.21;;;5.21;;
2710;SDS011;20721;47.402;8.550;2023-07-29T09:13:51;5.09;;;5.09;;
2710;SDS011;20721;47.402;8.550;2023-07-29T09:15:56;5.25;;;5.25;;
2710;SDS011;20721;47.402;8.550;2023-07-29T09:17:51;4.73;;;4.73;;
2710;SDS011;20721;47.402;8.550;2023-07-29T09:19:51;4.89;;;4.89;;
2710;SDS011;20721;47.402;8.550;2023-07-29T09:21:51;4.79;;;4.79;;
2710;SDS011;20721;47.402;8.550;2023-07-29T09:23:52;4.86;;;4.86;;
2710;SDS011;20721;47.402;8.550;2023-07-29T09:25:51;5.46;;;5.46;;
2710;SDS011;20721;47.402;8.550;2023-07-29T09:27:51;4.54;;;4.54;;
2710;SDS011;20721;47.402;8.550;2023-07-29T09:29:51;5.00;;;5.00;;
2710;SDS011;20721;47.402;8.550;2023-07-29T09:31:51;4.86;;;4.86;;
2710;SDS011;20721;47.402;8.550;2023-07-29T09:33:59;4.28;;;4.28;;
2710;SDS011;20721;47.402;8.550;2023-07-29T09:35:51;4.08;;;4.08;;
2710;SDS011;20721;47.402;8.550;2023-07-29T09:37:51;4.22;;;4.22;;
2710;SDS011;20721;47.402;8.550;2023-07-29T09:39:54;4.70;;;4.70;;
2710;SDS011;20721;47.402;8.550;2023-07-29T09:41:56;4.50;;;4.50;;
2710;SDS011;20721;47.402;8.550;2023-07-29T09:43:54;4.20;;;4.20;;
2710;SDS011;20721;47.402;8.550;2023-07-29T09:45:51;4.05;;;4.05;;
2710;SDS011;20721;47.402;8.550;2023-07-29T09:47:56;4.15;;;4.15;;
2710;SDS011;20721;47.402;8.550;2023-07-29T09:49:52;3.61;;;3.61;;
2710;SDS011;20721;47.402;8.550;2023-07-29T09:51:51;4.37;;;4.37;;
2710;SDS011;20721;47.402;8.550;2023-07-29T09:53:53;4.24;;;4.24;;
2710;SDS011;20721;47.402;8.550;2023-07-29T09:55:56;4.77;;;4.77;;
2710;SDS011;20721;47.402;8.550;2023-07-29T09:59:54;4.01;;;4.01;;
2710;SDS011;20721;47.402;8.550;2023-07-29T10:01:52;4.43;;;4.43;;
2710;SDS011;20721;47.402;8.550;2023-07-29T10:03:52;4.18;;;4.18;;
2710;SDS011;20721;47.402;8.550;2023-07-29T10:05:51;3.74;;;3.74;;
2710;SDS011;20721;47.402;8.550;2023-07-29T10:07:51;4.31;;;4.31;;
2710;SDS011;20721;47.402;8.550;2023-07-29T10:09:52;4.18;;;4.18;;
2710;SDS011;20721;47.402;8.550;2023-07-29T10:11:51;3.86;;;3.86;;
2710;SDS011;20721;47.402;8.550;2023-07-29T10:13:52;3.76;;;3.76;;
2710;SDS011;20721;47.402;8.550;2023-07-29T10:15:53;5.12;;;5.12;;
2710;SDS011;20721;47.402;8.550;2023-07-29T10:17:51;3.71;;;3.71;;
2710;SDS011;20721;47.402;8.550;2023-07-29T10:19:54;3.45;;;3.45;;
2710;SDS011;20721;47.402;8.550;2023-07-29T10:21:54;3.94;;;3.94;;
2710;SDS011;20721;47.402;8.550;2023-07-29T10:23:53;3.82;;;3.82;;
2710;SDS011;20721;47.402;8.550;2023-07-29T10:26:03;3.97;;;3.97;;
2710;SDS011;20721;47.402;8.550;2023-07-29T10:28:03;3.77;;;3.77;;
2710;SDS011;20721;47.402;8.550;2023-07-29T10:29:53;4.24;;;4.24;;
2710;SDS011;20721;47.402;8.550;2023-07-29T10:31:53;3.67;;;3.67;;
2710;SDS011;20721;47.402;8.550;2023-07-29T10:33:51;4.24;;;4.24;;
2710;SDS011;20721;47.402;8.550;2023-07-29T10:35:52;4.09;;;4.09;;
2710;SDS011;20721;47.402;8.550;2023-07-29T10:37:51;3.76;;;3.76;;
2710;SDS011;20721;47.402;8.550;2023-07-29T10:40:03;3.95;;;3.95;;
2710;SDS011;20721;47.402;8.550;2023-07-29T10:42:22;4.07;;;4.07;;
2710;SDS011;20721;47.402;8.550;2023-07-29T10:43:51;4.14;;;4.14;;
2710;SDS011;20721;47.402;8.550;2023-07-29T10:45:51;4.19;;;4.19;;
2710;SDS011;20721;47.402;8.550;2023-07-29T10:47:51;4.09;;;4.09;;
2710;SDS011;20721;47.402;8.550;2023-07-29T10:49:52;4.17;;;4.17;;
2710;SDS011;20721;47.402;8.550;2023-07-29T10:51:51;4.05;;;4.05;;
2710;SDS011;20721;47.402;8.550;2023-07-29T10:53:52;4.13;;;4.13;;
2710;SDS011;20721;47.402;8.550;2023-07-29T10:55:53;4.87;;;4.87;;
2710;SDS011;20721;47.402;8.550;2023-07-29T11:00:03;3.67;;;3.67;;
2710;SDS011;20721;47.402;8.550;2023-07-29T11:02:01;4.36;;;4.36;;
2710;SDS011;20721;47.402;8.550;2023-07-29T11:05:53;4.73;;;4.73;;
2710;SDS011;20721;47.402;8.550;2023-07-29T11:07:55;3.71;;;3.71;;
2710;SDS011;20721;47.402;8.550;2023-07-29T11:09:59;4.94;;;4.94;;
2710;SDS011;20721;47.402;8.550;2023-07-29T11:11:51;4.26;;;4.26;;
2710;SDS011;20721;47.402;8.550;2023-07-29T11:13:51;4.13;;;4.13;;
2710;SDS011;20721;47.402;8.550;2023-07-29T11:15:51;3.85;;;3.85;;
2710;SDS011;20721;47.402;8.550;2023-07-29T11:17:54;4.57;;;4.57;;
2710;SDS011;20721;47.402;8.550;2023-07-29T11:19:51;4.17;;;4.17;;
2710;SDS011;20721;47.402;8.550;2023-07-29T11:21:52;4.32;;;4.32;;
2710;SDS011;20721;47.402;8.550;2023-07-29T11:23:52;4.44;;;4.44;;
2710;SDS011;20721;47.402;8.550;2023-07-29T11:25:51;4.39;;;4.39;;
2710;SDS011;20721;47.402;8.550;2023-07-29T11:27:52;4.69;;;4.69;;
2710;SDS011;20721;47.402;8.550;2023-07-29T11:29:56;4.47;;;4.47;;
2710;SDS011;20721;47.402;8.550;2023-07-29T11:31:51;4.67;;;4.67;;
2710;SDS011;20721;47.402;8.550;2023-07-29T11:33:51;4.58;;;4.58;;
2710;SDS011;20721;47.402;8.550;2023-07-29T11:35:51;5.11;;;5.11;;
2710;SDS011;20721;47.402;8.550;2023-07-29T11:37:54;5.11;;;5.11;;
2710;SDS011;20721;47.402;8.550;2023-07-29T11:39:51;5.29;;;5.29;;
2710;SDS011;20721;47.402;8.550;2023-07-29T11:41:52;5.12;;;5.12;;
2710;SDS011;20721;47.402;8.550;2023-07-29T11:43:53;3.58;;;3.58;;
2710;SDS011;20721;47.402;8.550;2023-07-29T11:46:02;3.08;;;3.08;;
2710;SDS011;20721;47.402;8.550;2023-07-29T11:47:52;3.39;;;3.39;;
2710;SDS011;20721;47.402;8.550;2023-07-29T11:49:51;4.17;;;4.17;;
2710;SDS011;20721;47.402;8.550;2023-07-29T11:51:52;3.61;;;3.61;;
2710;SDS011;20721;47.402;8.550;2023-07-29T11:53:51;3.70;;;3.70;;
2710;SDS011;20721;47.402;8.550;2023-07-29T11:55:51;3.52;;;3.52;;
2710;SDS011;20721;47.402;8.550;2023-07-29T11:57:52;3.62;;;3.62;;
2710;SDS011;20721;47.402;8.550;2023-07-29T12:00:51;3.33;;;3.33;;
2710;SDS011;20721;47.402;8.550;2023-07-29T12:02:53;3.46;;;3.46;;
2710;SDS011;20721;47.402;8.550;2023-07-29T12:04:52;3.91;;;3.91;;
2710;SDS011;20721;47.402;8.550;2023-07-29T12:06:52;3.79;;;3.79;;
2710;SDS011;20721;47.402;8.550;2023-07-29T12:08:52;4.24;;;4.24;;
2710;SDS011;20721;47.402;8.550;2023-07-29T12:10:52;4.11;;;4.11;;
2710;SDS011;20721;47.402;8.550;2023-07-29T12:12:55;3.68;;;3.68;;
2710;SDS011;20721;47.402;8.550;2023-07-29T12:14:55;3.87;;;3.87;;
2710;SDS011;20721;47.402;8.550;2023-07-29T12:16:53;4.13;;;4.13;;
2710;SDS011;20721;47.402;8.550;2023-07-29T12:18:51;4.13;;;4.13;;
2710;SDS011;20721;47.402;8.550;2023-07-29T12:20:51;3.56;;;3.56;;
2710;SDS011;20721;47.402;8.550;2023-07-29T12:22:59;4.39;;;4.39;;
2710;SDS011;20721;47.402;8.550;2023-07-29T12:24:51;4.23;;;4.23;;
2710;SDS011;20721;47.402;8.550;2023-07-29T12:26:51;4.82;;;4.82;;
2710;SDS011;20721;47.402;8.550;2023-07-29T12:28:55;4.08;;;4.08;;
2710;SDS011;20721;47.402;8.550;2023-07-29T12:30:53;4.73;;;4.73;;
2710;SDS011;20721;47.402;8.550;2023-07-29T12:32:53;4.63;;;4.63;;
2710;SDS011;20721;47.402;8.550;2023-07-29T12:34:53;3.88;;;3.88;;
2710;SDS011;20721;47.402;8.550;2023-07-29T12:36:52;4.27;;;4.27;;
2710;SDS011;20721;47.402;8.550;2023-07-29T12:38:52;4.51;;;4.51;;
2710;SDS011;20721;47.402;8.550;2023-07-29T12:40:52;4.47;;;4.47;;
2710;SDS011;20721;47.402;8.550;2023-07-29T12:42:51;4.62;;;4.62;;
2710;SDS011;20721;47.402;8.550;2023-07-29T12:44:51;4.24;;;4.24;;
2710;SDS011;20721;47.402;8.550;2023-07-29T12:47:51;4.09;;;4.09;;
2710;SDS011;20721;47.402;8.550;2023-07-29T12:49:51;4.71;;;4.71;;
2710;SDS011;20721;47.402;8.550;2023-07-29T12:51:51;4.56;;;4.56;;
2710;SDS011;20721;47.402;8.550;2023-07-29T12:53:51;4.57;;;4.57;;
2710;SDS011;20721;47.402;8.550;2023-07-29T12:55:51;3.04;;;3.04;;